createdAt,value
2019-06-27T00:01:01.828Z,101050.41
2019-06-27T00:03:34.488Z,101055.55
2019-06-27T00:06:06.724Z,101056.23
2019-06-27T00:08:43.878Z,101057.05
2019-06-27T00:11:16.144Z,101056.17
2019-06-27T00:13:48.385Z,101059.25
2019-06-27T00:16:20.772Z,101057.50
2019-06-27T00:18:53.477Z,101057.20
2019-06-27T00:21:25.976Z,101053.75
2019-06-27T00:23:58.491Z,101053.61
2019-06-27T00:26:30.745Z,101054.45
2019-06-27T00:29:04.064Z,101054.37
2019-06-27T00:31:36.299Z,101050.75
2019-06-27T00:34:08.648Z,101042.67
2019-06-27T00:36:41.775Z,101050.34
2019-06-27T00:39:14.008Z,101046.86
2019-06-27T00:41:46.169Z,101051.33
2019-06-27T00:44:27.204Z,101049.66
2019-06-27T00:47:01.430Z,101050.10
2019-06-27T00:49:33.777Z,101047.50
2019-06-27T00:52:07.235Z,101044.05
2019-06-27T00:54:39.880Z,101043.79
2019-06-27T00:57:14.399Z,101050.47
2019-06-27T00:59:47.240Z,101053.80
2019-06-27T01:02:26.428Z,101057.02
2019-06-27T01:05:04.831Z,101050.40
2019-06-27T01:07:37.134Z,101053.44
2019-06-27T01:10:12.164Z,101057.66
2019-06-27T01:12:44.515Z,101058.73
2019-06-27T01:15:19.232Z,101054.37
2019-06-27T01:17:51.611Z,101055.88
2019-06-27T01:20:23.959Z,101058.17
2019-06-27T01:22:56.235Z,101059.44
2019-06-27T01:25:29.766Z,101052.72
2019-06-27T01:28:02.058Z,101058.90
2019-06-27T01:30:34.335Z,101060.46
2019-06-27T01:33:06.710Z,101056.27
2019-06-27T01:35:38.976Z,101055.01
2019-06-27T01:38:11.348Z,101053.06
2019-06-27T01:40:43.546Z,101052.66
2019-06-27T01:43:23.391Z,101047.80
2019-06-27T01:45:58.270Z,101051.20
2019-06-27T01:48:32.209Z,101049.80
2019-06-27T01:51:04.382Z,101049.48
2019-06-27T01:53:36.673Z,101046.70
2019-06-27T01:56:08.890Z,101048.55
2019-06-27T01:58:41.852Z,101049.48
2019-06-27T02:04:39.506Z,101056.12
2019-06-27T02:07:16.836Z,101049.98
2019-06-27T02:09:54.195Z,101055.38
2019-06-27T02:12:31.448Z,101054.25
2019-06-27T02:15:08.107Z,101061.57
2019-06-27T02:17:45.445Z,101055.17
2019-06-27T02:20:17.722Z,101057.30
2019-06-27T02:22:50.087Z,101058.80
2019-06-27T02:25:23.649Z,101060.30
2019-06-27T02:28:03.764Z,101059.53
2019-06-27T02:30:41.636Z,101064.84
2019-06-27T02:33:14.020Z,101068.70
2019-06-27T02:35:46.311Z,101073.22
2019-06-27T02:38:18.707Z,101074.80
2019-06-27T02:40:51.005Z,101073.85
2019-06-27T02:43:23.369Z,101073.81
2019-06-27T02:45:55.589Z,101079.61
2019-06-27T02:48:27.971Z,101080.92
2019-06-27T02:51:00.266Z,101087.59
2019-06-27T02:53:32.644Z,101084.92
2019-06-27T02:56:04.866Z,101080.84
2019-06-27T02:58:37.230Z,101088.53
2019-06-27T03:01:09.625Z,101086.75
2019-06-27T03:03:42.128Z,101083.84
2019-06-27T03:06:14.519Z,101087.97
2019-06-27T03:08:46.795Z,101089.62
2019-06-27T03:11:18.976Z,101091.51
2019-06-27T03:13:51.243Z,101090.67
2019-06-27T03:16:23.454Z,101091.84
2019-06-27T03:18:55.701Z,101094.66
2019-06-27T03:21:27.928Z,101092.18
2019-06-27T03:24:00.189Z,101096.45
2019-06-27T03:26:32.440Z,101098.02
2019-06-27T03:29:04.702Z,101101.78
2019-06-27T03:31:36.954Z,101102.70
2019-06-27T03:34:09.306Z,101097.91
2019-06-27T03:36:41.514Z,101100.47
2019-06-27T03:39:13.728Z,101102.80
2019-06-27T03:41:45.964Z,101107.91
2019-06-27T03:44:18.220Z,101109.52
2019-06-27T03:46:50.405Z,101117.50
2019-06-27T03:49:22.620Z,101117.38
2019-06-27T03:51:54.901Z,101115.58
2019-06-27T03:54:27.090Z,101115.09
2019-06-27T03:56:59.361Z,101113.59
2019-06-27T03:59:31.605Z,101113.42
2019-06-27T04:02:03.828Z,101114.55
2019-06-27T04:04:41.033Z,101120.78
2019-06-27T04:07:18.087Z,101122.03
2019-06-27T04:09:50.285Z,101124.89
2019-06-27T04:12:22.915Z,101123.12
2019-06-27T04:14:55.260Z,101129.22
2019-06-27T04:17:27.593Z,101129.03
2019-06-27T04:19:59.856Z,101128.96
2019-06-27T04:22:32.191Z,101129.59
2019-06-27T04:25:04.598Z,101127.09
2019-06-27T04:27:36.909Z,101131.56
2019-06-27T04:30:08.789Z,101127.33
2019-06-27T04:32:41.057Z,101133.02
2019-06-27T04:35:14.751Z,101130.48
2019-06-27T04:37:48.177Z,101130.29
2019-06-27T04:40:23.244Z,101126.66
2019-06-27T04:42:55.470Z,101128.47
2019-06-27T04:45:27.643Z,101129.89
2019-06-27T04:47:59.925Z,101134.67
2019-06-27T04:50:33.113Z,101136.05
2019-06-27T04:53:05.393Z,101134.66
2019-06-27T04:55:37.627Z,101134.34
2019-06-27T04:58:09.960Z,101133.60
2019-06-27T05:00:42.235Z,101139.67
2019-06-27T05:03:15.521Z,101139.86
2019-06-27T05:05:47.806Z,101144.17
2019-06-27T05:08:20.061Z,101143.83
2019-06-27T05:10:52.271Z,101153.55
2019-06-27T05:13:24.784Z,101152.56
2019-06-27T05:15:57.317Z,101151.38
2019-06-27T05:18:29.643Z,101145.33
2019-06-27T05:21:01.835Z,101145.27
2019-06-27T05:23:34.195Z,101147.06
2019-06-27T05:26:06.467Z,101153.67
2019-06-27T05:28:38.767Z,101152.19
2019-06-27T05:31:11.281Z,101154.06
2019-06-27T05:33:43.767Z,101160.85
2019-06-27T05:36:16.064Z,101159.73
2019-06-27T05:38:48.367Z,101165.28
2019-06-27T05:41:20.535Z,101166.91
2019-06-27T05:43:52.895Z,101163.48
2019-06-27T05:46:25.125Z,101163.38
2019-06-27T05:48:57.420Z,101160.92
2019-06-27T05:51:29.671Z,101161.83
2019-06-27T05:54:01.952Z,101168.95
2019-06-27T05:56:34.387Z,101169.56
2019-06-27T05:59:06.654Z,101172.57
2019-06-27T06:01:38.864Z,101171.22
2019-06-27T06:04:11.151Z,101173.08
2019-06-27T06:06:43.365Z,101178.67
2019-06-27T06:09:15.652Z,101181.02
2019-06-27T06:11:47.814Z,101178.28
2019-06-27T06:14:20.041Z,101180.19
2019-06-27T06:16:52.264Z,101185.38
2019-06-27T06:19:24.526Z,101187.86
2019-06-27T06:21:56.755Z,101187.47
2019-06-27T06:24:29.080Z,101188.34
2019-06-27T06:27:01.295Z,101190.16
2019-06-27T06:29:33.683Z,101198.69
2019-06-27T06:32:06.683Z,101194.81
2019-06-27T06:34:39.136Z,101195.36
2019-06-27T06:37:11.405Z,101199.70
2019-06-27T06:39:43.670Z,101199.14
2019-06-27T06:42:15.830Z,101195.64
2019-06-27T06:44:48.818Z,101201.11
2019-06-27T06:47:21.022Z,101199.13
2019-06-27T06:49:53.286Z,101199.42
2019-06-27T06:52:25.469Z,101197.78
2019-06-27T06:54:58.546Z,101197.27
2019-06-27T06:57:30.696Z,101193.50
2019-06-27T07:00:05.467Z,101197.58
2019-06-27T07:02:37.808Z,101200.61
2019-06-27T07:05:10.613Z,101203.84
2019-06-27T07:07:43.258Z,101202.59
2019-06-27T07:10:16.024Z,101200.43
2019-06-27T07:12:48.249Z,101202.83
2019-06-27T07:15:23.351Z,101203.50
2019-06-27T07:17:56.544Z,101203.63
2019-06-27T07:20:28.897Z,101202.09
2019-06-27T07:23:01.143Z,101200.89
2019-06-27T07:25:33.588Z,101199.70
2019-06-27T07:28:05.820Z,101198.42
2019-06-27T07:30:38.036Z,101205.47
2019-06-27T07:33:10.466Z,101198.97
2019-06-27T07:35:42.819Z,101199.87
2019-06-27T07:38:14.995Z,101199.28
2019-06-27T07:40:47.257Z,101202.59
2019-06-27T07:43:19.475Z,101201.02
2019-06-27T07:45:51.716Z,101207.33
2019-06-27T07:48:23.946Z,101202.61
2019-06-27T07:50:56.235Z,101203.52
2019-06-27T07:53:28.435Z,101208.25
2019-06-27T07:56:02.219Z,101213.00
2019-06-27T07:58:34.377Z,101217.66
2019-06-27T08:01:06.576Z,101217.14
2019-06-27T08:03:38.783Z,101217.89
2019-06-27T08:06:11.029Z,101215.23
2019-06-27T08:08:43.284Z,101218.56
2019-06-27T08:11:15.533Z,101212.45
2019-06-27T08:13:47.697Z,101214.05
2019-06-27T08:16:19.920Z,101210.05
2019-06-27T08:18:52.163Z,101212.20
2019-06-27T08:21:24.496Z,101206.67
2019-06-27T08:23:56.656Z,101213.36
2019-06-27T08:26:29.372Z,101208.34
2019-06-27T08:29:01.628Z,101206.83
2019-06-27T08:31:47.455Z,101207.02
2019-06-27T08:34:23.181Z,101200.59
2019-06-27T08:36:55.404Z,101204.23
2019-06-27T08:39:27.583Z,101199.76
2019-06-27T08:41:59.811Z,101199.05
2019-06-27T08:44:31.985Z,101195.97
2019-06-27T08:47:04.252Z,101196.22
2019-06-27T08:49:36.497Z,101198.95
2019-06-27T08:52:08.790Z,101201.19
2019-06-27T08:54:40.988Z,101200.22
2019-06-27T08:57:20.420Z,101199.92
2019-06-27T08:59:52.603Z,101199.98
2019-06-27T09:02:24.872Z,101196.66
2019-06-27T09:04:57.103Z,101198.41
2019-06-27T09:07:29.319Z,101201.22
2019-06-27T09:10:01.617Z,101198.96
2019-06-27T09:12:35.892Z,101192.09
2019-06-27T09:15:07.755Z,101196.56
2019-06-27T09:17:40.213Z,101194.89
2019-06-27T09:20:12.408Z,101197.18
2019-06-27T09:22:44.658Z,101193.01
2019-06-27T09:25:16.937Z,101195.76
2019-06-27T09:27:49.234Z,101196.81
2019-06-27T09:30:22.457Z,101191.88
2019-06-27T09:32:54.778Z,101190.84
2019-06-27T09:35:27.029Z,101184.27
2019-06-27T09:37:59.422Z,101184.22
2019-06-27T09:40:37.984Z,101183.26
2019-06-27T09:43:10.289Z,101182.06
2019-06-27T09:45:42.532Z,101184.23
2019-06-27T09:48:14.787Z,101183.93
2019-06-27T09:50:46.996Z,101180.38
2019-06-27T09:53:19.382Z,101178.02
2019-06-27T09:55:51.603Z,101181.59
2019-06-27T10:01:40.854Z,101182.76
2019-06-27T10:04:15.551Z,101176.37
2019-06-27T10:06:47.773Z,101178.68
2019-06-27T10:09:20.167Z,101180.55
2019-06-27T10:11:53.357Z,101175.00
2019-06-27T10:14:25.856Z,101172.11
2019-06-27T10:16:58.791Z,101171.97
2019-06-27T10:19:32.034Z,101174.88
2019-06-27T10:22:04.326Z,101172.75
2019-06-27T10:24:56.352Z,101168.38
2019-06-27T10:27:43.671Z,101170.34
2019-06-27T10:30:25.924Z,101164.44
2019-06-27T10:33:00.068Z,101160.05
2019-06-27T10:35:32.763Z,101156.41
2019-06-27T10:38:04.980Z,101155.60
2019-06-27T10:40:37.328Z,101156.02
2019-06-27T10:43:09.543Z,101152.42
2019-06-27T10:45:41.853Z,101155.61
2019-06-27T10:48:14.137Z,101155.34
2019-06-27T10:50:46.700Z,101156.72
2019-06-27T10:53:18.983Z,101152.95
2019-06-27T10:55:51.214Z,101152.94
2019-06-27T10:58:23.425Z,101148.44
2019-06-27T11:00:55.708Z,101149.55
2019-06-27T11:03:27.891Z,101147.31
2019-06-27T11:06:00.189Z,101146.23
2019-06-27T11:08:32.379Z,101141.06
2019-06-27T11:11:04.679Z,101136.55
2019-06-27T11:13:36.896Z,101132.13
2019-06-27T11:16:09.189Z,101137.04
2019-06-27T11:18:46.445Z,101131.42
2019-06-27T11:21:22.456Z,101131.41
2019-06-27T11:23:55.163Z,101122.42
2019-06-27T11:26:27.892Z,101125.11
2019-06-27T11:29:00.701Z,101120.47
2019-06-27T11:31:33.037Z,101118.54
2019-06-27T11:34:05.313Z,101113.90
2019-06-27T11:36:37.627Z,101116.04
2019-06-27T11:39:10.044Z,101116.51
2019-06-27T11:41:42.323Z,101117.92
2019-06-27T11:44:14.511Z,101111.78
2019-06-27T11:46:47.744Z,101113.28
2019-06-27T11:49:19.996Z,101117.70
2019-06-27T11:51:52.665Z,101118.19
2019-06-27T11:54:28.264Z,101113.29
2019-06-27T11:57:00.605Z,101115.53
2019-06-27T11:59:34.453Z,101119.05
2019-06-27T12:02:08.615Z,101108.58
2019-06-27T12:04:41.108Z,101112.19
2019-06-27T12:07:13.409Z,101109.86
2019-06-27T12:09:46.012Z,101102.33
2019-06-27T12:12:20.269Z,101100.27
2019-06-27T12:14:56.381Z,101101.20
2019-06-27T12:17:29.389Z,101103.00
2019-06-27T12:20:02.635Z,101098.56
2019-06-27T12:22:35.108Z,101098.67
2019-06-27T12:25:28.505Z,101096.23
2019-06-27T12:28:28.033Z,101097.84
2019-06-27T12:31:10.334Z,101089.39
2019-06-27T12:34:05.568Z,101090.08
2019-06-27T12:36:39.449Z,101084.30
2019-06-27T12:39:12.382Z,101088.73
2019-06-27T12:41:44.747Z,101083.09
2019-06-27T12:44:17.224Z,101080.38
2019-06-27T12:46:50.422Z,101078.50
2019-06-27T12:49:36.947Z,101081.83
2019-06-27T12:52:17.472Z,101080.66
2019-06-27T12:54:52.371Z,101073.09
2019-06-27T12:57:25.044Z,101072.39
2019-06-27T12:59:57.652Z,101070.66
2019-06-27T13:02:29.962Z,101071.06
2019-06-27T13:05:02.439Z,101074.37
2019-06-27T13:07:34.670Z,101062.69
2019-06-27T13:10:07.160Z,101062.70
2019-06-27T13:12:40.505Z,101066.66
2019-06-27T13:15:15.223Z,101059.58
2019-06-27T13:17:48.581Z,101059.09
2019-06-27T13:20:21.205Z,101064.50
2019-06-27T13:22:53.462Z,101058.22
2019-06-27T13:25:25.851Z,101052.83
2019-06-27T13:27:58.128Z,101049.04
2019-06-27T13:30:30.483Z,101038.09
2019-06-27T13:33:03.145Z,101042.78
2019-06-27T13:35:35.968Z,101041.94
2019-06-27T13:38:09.465Z,101039.00
2019-06-27T13:40:41.860Z,101035.84
2019-06-27T13:43:14.031Z,101035.56
2019-06-27T13:45:46.508Z,101038.46
2019-06-27T13:48:18.770Z,101034.52
2019-06-27T13:50:51.090Z,101032.22
2019-06-27T13:53:23.349Z,101027.82
2019-06-27T13:55:55.632Z,101026.30
2019-06-27T13:58:27.838Z,101019.09
2019-06-27T14:01:00.311Z,101020.14
2019-06-27T14:03:48.315Z,101016.86
2019-06-27T14:06:21.825Z,101010.83
2019-06-27T14:08:54.189Z,101008.23
2019-06-27T14:11:26.467Z,101011.93
2019-06-27T14:13:58.745Z,101008.95
2019-06-27T14:16:31.825Z,101001.38
2019-06-27T14:19:04.532Z,101001.18
2019-06-27T14:21:37.714Z,101002.38
2019-06-27T14:24:09.980Z,101005.17
2019-06-27T14:26:42.315Z,101005.78
2019-06-27T14:29:14.596Z,101006.09
2019-06-27T14:31:46.890Z,101002.95
2019-06-27T14:34:19.179Z,101003.89
2019-06-27T14:36:54.295Z,101004.97
2019-06-27T14:39:27.298Z,101003.23
2019-06-27T14:42:00.595Z,100999.64
2019-06-27T14:44:32.981Z,100998.70
2019-06-27T14:47:05.337Z,100990.27
2019-06-27T14:49:37.731Z,100989.89
2019-06-27T14:52:10.180Z,100991.30
2019-06-27T14:54:46.278Z,100984.94
2019-06-27T14:57:19.599Z,100994.79
2019-06-27T14:59:52.086Z,100992.81
2019-06-27T15:02:24.406Z,100993.56
2019-06-27T15:04:56.748Z,100987.95
2019-06-27T15:07:32.041Z,100985.30
2019-06-27T15:10:12.952Z,100981.15
2019-06-27T15:12:56.628Z,100983.57
2019-06-27T15:15:30.000Z,100985.74
2019-06-27T15:18:02.508Z,100984.95
2019-06-27T15:20:35.695Z,100985.50
2019-06-27T15:23:08.104Z,100989.69
2019-06-27T15:25:42.235Z,100990.70
2019-06-27T15:28:14.611Z,100987.62
2019-06-27T15:30:47.870Z,100979.61
2019-06-27T15:33:20.301Z,100979.71
2019-06-27T15:35:52.986Z,100979.84
2019-06-27T15:38:25.756Z,100979.92
2019-06-27T15:40:58.545Z,100978.65
2019-06-27T15:43:31.105Z,100976.61
2019-06-27T15:46:03.612Z,100980.41
2019-06-27T15:48:36.051Z,100981.09
2019-06-27T15:51:09.220Z,100964.11
2019-06-27T15:53:41.698Z,100971.83
2019-06-27T15:56:14.058Z,100969.66
2019-06-27T15:58:46.434Z,100972.37
2019-06-27T16:01:18.722Z,100967.09
2019-06-27T16:03:51.068Z,100966.06
2019-06-27T16:06:23.536Z,100964.86
2019-06-27T16:08:56.208Z,100963.16
2019-06-27T16:11:29.337Z,100950.05
2019-06-27T16:14:01.645Z,100954.11
2019-06-27T16:16:33.956Z,100954.91
2019-06-27T16:19:06.257Z,100949.23
2019-06-27T16:21:38.495Z,100942.89
2019-06-27T16:24:10.748Z,100944.77
2019-06-27T16:26:42.995Z,100943.30
2019-06-27T16:29:15.275Z,100947.23
2019-06-27T16:31:50.216Z,100945.46
2019-06-27T16:34:22.745Z,100944.34
2019-06-27T16:36:55.216Z,100939.38
2019-06-27T16:39:27.532Z,100940.59
2019-06-27T16:41:59.823Z,100943.30
2019-06-27T16:44:35.599Z,100942.36
2019-06-27T16:47:08.332Z,100944.12
2019-06-27T16:49:40.721Z,100949.63
2019-06-27T16:52:13.986Z,100945.94
2019-06-27T16:54:46.555Z,100948.05
2019-06-27T16:57:18.807Z,100938.19
2019-06-27T16:59:51.841Z,100939.28
2019-06-27T17:02:24.091Z,100941.16
2019-06-27T17:04:56.524Z,100942.13
2019-06-27T17:07:28.794Z,100941.73
2019-06-27T17:10:02.077Z,100945.20
2019-06-27T17:12:34.292Z,100943.66
2019-06-27T17:15:08.988Z,100942.71
2019-06-27T17:17:41.833Z,100945.11
2019-06-27T17:20:15.779Z,100943.92
2019-06-27T17:22:48.146Z,100941.84
2019-06-27T17:25:20.468Z,100944.44
2019-06-27T17:27:52.775Z,100943.38
2019-06-27T17:30:25.167Z,100939.33
2019-06-27T17:32:58.167Z,100945.78
2019-06-27T17:35:30.529Z,100937.53
2019-06-27T17:38:02.842Z,100937.89
2019-06-27T17:40:35.165Z,100935.39
2019-06-27T17:43:07.522Z,100939.27
2019-06-27T17:45:39.821Z,100938.17
2019-06-27T17:48:12.063Z,100942.13
2019-06-27T17:50:44.295Z,100941.09
2019-06-27T17:53:16.618Z,100937.48
2019-06-27T17:55:48.955Z,100944.47
2019-06-27T17:58:21.348Z,100945.41
2019-06-27T18:00:53.940Z,100940.69
2019-06-27T18:03:26.384Z,100944.38
2019-06-27T18:05:59.821Z,100946.21
2019-06-27T18:08:32.230Z,100941.62
2019-06-27T18:11:05.080Z,100940.05
2019-06-27T18:13:37.352Z,100937.34
2019-06-27T18:16:09.719Z,100933.96
2019-06-27T18:18:42.097Z,100933.94
2019-06-27T18:21:14.352Z,100937.63
2019-06-27T18:23:46.681Z,100937.52
2019-06-27T18:26:19.130Z,100931.10
2019-06-27T18:28:53.906Z,100932.36
2019-06-27T18:31:26.270Z,100935.23
2019-06-27T18:33:58.670Z,100934.68
2019-06-27T18:36:30.941Z,100929.68
2019-06-27T18:39:03.514Z,100933.47
2019-06-27T18:41:35.805Z,100933.75
2019-06-27T18:44:08.173Z,100936.16
2019-06-27T18:46:40.574Z,100934.78
2019-06-27T18:49:13.486Z,100933.11
2019-06-27T18:51:45.900Z,100931.77
2019-06-27T18:54:18.208Z,100933.09
2019-06-27T18:56:50.556Z,100931.53
2019-06-27T18:59:22.924Z,100928.20
2019-06-27T19:01:55.345Z,100930.95
2019-06-27T19:04:28.963Z,100931.06
2019-06-27T19:07:01.277Z,100930.61
2019-06-27T19:09:33.594Z,100929.16
2019-06-27T19:12:06.618Z,100930.45
2019-06-27T19:14:38.956Z,100930.05
2019-06-27T19:17:11.291Z,100931.48
2019-06-27T19:19:48.715Z,100931.10
2019-06-27T19:22:44.443Z,100931.27
2019-06-27T19:25:33.332Z,100931.99
2019-06-27T19:28:05.834Z,100934.16
2019-06-27T19:30:38.195Z,100935.70
2019-06-27T19:33:10.705Z,100940.83
2019-06-27T19:35:42.990Z,100942.21
2019-06-27T19:38:15.294Z,100943.41
2019-06-27T19:40:47.586Z,100947.42
2019-06-27T19:43:27.537Z,100949.37
2019-06-27T19:46:01.060Z,100956.97
2019-06-27T19:48:33.489Z,100956.28
2019-06-27T19:51:06.394Z,100958.79
2019-06-27T19:53:39.665Z,100966.44
2019-06-27T19:56:11.955Z,100967.78
2019-06-27T19:58:44.287Z,100972.64
2019-06-27T20:01:18.189Z,100973.05
2019-06-27T20:03:51.953Z,100975.31
2019-06-27T20:06:25.758Z,100974.15
2019-06-27T20:08:59.584Z,100974.48
2019-06-27T20:11:32.844Z,100976.24
2019-06-27T20:14:05.286Z,100979.70
2019-06-27T20:16:38.249Z,100983.08
2019-06-27T20:19:12.809Z,100986.55
2019-06-27T20:21:45.248Z,100994.84
2019-06-27T20:26:12.433Z,100994.45
2019-06-27T20:28:44.800Z,100993.25
2019-06-27T20:31:18.721Z,100995.71
2019-06-27T20:33:53.213Z,100995.14
2019-06-27T20:36:25.690Z,101002.37
2019-06-27T20:38:58.061Z,101002.31
2019-06-27T20:41:31.073Z,101007.58
2019-06-27T20:44:03.389Z,101006.31
2019-06-27T20:46:35.716Z,101011.86
2019-06-27T20:49:09.720Z,101011.05
2019-06-27T20:51:41.971Z,101013.13
2019-06-27T20:54:14.244Z,101014.88
2019-06-27T20:56:46.596Z,101011.69
2019-06-27T20:59:18.837Z,101010.92
2019-06-27T21:01:51.152Z,101008.98
2019-06-27T21:04:23.385Z,101016.68
2019-06-27T21:06:55.727Z,101015.23
2019-06-27T21:09:28.009Z,101018.81
2019-06-27T21:12:00.272Z,101016.26
2019-06-27T21:14:33.223Z,101015.83
2019-06-27T21:17:05.606Z,101017.21
2019-06-27T21:19:38.012Z,101014.42
2019-06-27T21:22:10.303Z,101018.67
2019-06-27T21:24:42.547Z,101021.42
2019-06-27T21:27:14.792Z,101020.45
2019-06-27T21:29:47.126Z,101018.39
2019-06-27T21:32:30.903Z,101020.73
2019-06-27T21:35:04.471Z,101019.59
2019-06-27T21:37:36.697Z,101022.27
2019-06-27T21:40:08.919Z,101020.00
2019-06-27T21:42:41.154Z,101018.31
2019-06-27T21:45:14.928Z,101012.89
2019-06-27T21:47:47.227Z,101019.44
2019-06-27T21:50:19.521Z,101018.95
2019-06-27T21:52:51.746Z,101017.42
2019-06-27T21:55:23.977Z,101016.39
2019-06-27T21:57:59.717Z,101015.30
2019-06-27T22:00:36.948Z,101009.95
2019-06-27T22:03:09.189Z,101009.47
2019-06-27T22:05:41.544Z,101013.48
2019-06-27T22:08:13.535Z,101011.16
2019-06-27T22:10:45.817Z,101010.09
2019-06-27T22:13:18.049Z,101014.73
2019-06-27T22:15:50.339Z,101010.81
2019-06-27T22:18:22.587Z,101009.94
2019-06-27T22:20:54.892Z,101008.65
2019-06-27T22:23:27.212Z,101010.70
2019-06-27T22:25:59.484Z,101008.11
2019-06-27T22:28:31.800Z,101008.22
2019-06-27T22:31:04.100Z,101007.59
2019-06-27T22:33:36.277Z,101010.12
2019-06-27T22:36:08.476Z,101004.77
2019-06-27T22:38:46.208Z,101006.31
2019-06-27T22:41:23.864Z,100998.25
2019-06-27T22:44:01.677Z,100996.16
2019-06-27T22:46:39.523Z,100998.38
2019-06-27T22:49:11.487Z,100992.66
2019-06-27T22:52:03.065Z,100992.58
2019-06-27T22:54:38.244Z,100995.19
2019-06-27T22:57:10.447Z,100993.53
2019-06-27T22:59:42.633Z,100994.18
2019-06-27T23:02:14.846Z,100993.87
2019-06-27T23:04:47.147Z,100990.72
2019-06-27T23:07:19.365Z,100997.14
2019-06-27T23:09:56.789Z,101001.84
2019-06-27T23:12:29.871Z,100996.86
2019-06-27T23:15:03.878Z,100991.02
2019-06-27T23:17:36.107Z,100993.61
2019-06-27T23:20:09.315Z,100994.02
2019-06-27T23:22:41.546Z,100996.41
2019-06-27T23:25:13.813Z,100994.98
2019-06-27T23:27:46.399Z,100994.56
2019-06-27T23:30:17.906Z,100992.67
2019-06-27T23:32:50.144Z,100992.02
2019-06-27T23:35:22.379Z,100993.61
2019-06-27T23:37:54.611Z,100986.60
2019-06-27T23:40:26.944Z,100990.28
2019-06-27T23:42:59.196Z,100988.77
2019-06-27T23:45:32.648Z,100990.14
2019-06-27T23:48:04.835Z,100984.12
2019-06-27T23:50:37.248Z,100980.19
2019-06-27T23:53:09.433Z,100985.16
2019-06-27T23:55:41.654Z,100980.88
2019-06-27T23:58:14.525Z,100981.80
